Time;durP1;ratioP1;P1;durP2;ratioP2;P2;SDS_P1;SDS_P2;PMS_P1;PMS_P2;Temp;Humidity;BMP_temperature;BMP_pressure;BME280_temperature;BME280_humidity;BME280_pressure;Samples;Min_cycle;Max_cycle;Signal;HPM_P1;HPM_P2
2023/05/28 00:01:36;;;;;;;16.17;6.13;;;;;;;;;;5026917;28;20084;-72
2023/05/28 00:04:02;;;;;;;18.98;5.25;;;;;;;;;;5027398;28;20033;-72
2023/05/28 00:06:27;;;;;;;14.98;5.82;;;;;;;;;;5026457;28;20065;-72
2023/05/28 00:08:52;;;;;;;18.58;6.20;;;;;;;;;;5027106;28;20137;-72
2023/05/28 00:11:18;;;;;;;13.45;5.50;;;;;;;;;;5020906;28;20040;-72
2023/05/28 00:13:43;;;;;;;15.50;5.65;;;;;;;;;;5027397;28;20454;-72
2023/05/28 00:16:08;;;;;;;15.20;6.03;;;;;;;;;;5027583;28;20487;-72
2023/05/28 00:18:34;;;;;;;17.80;6.38;;;;;;;;;;5026524;28;20033;-72
2023/05/28 00:21:00;;;;;;;17.33;5.78;;;;;;;;;;5027335;28;20106;-72
2023/05/28 00:23:25;;;;;;;12.32;5.13;;;;;;;;;;5020939;28;20057;-72
2023/05/28 00:25:51;;;;;;;15.80;5.70;;;;;;;;;;5025520;28;20084;-72
2023/05/28 00:28:16;;;;;;;11.95;5.55;;;;;;;;;;5027604;28;20025;-72
2023/05/28 00:30:42;;;;;;;16.92;5.75;;;;;;;;;;5027204;28;20033;-72
2023/05/28 00:33:07;;;;;;;13.70;5.10;;;;;;;;;;5028802;28;20056;-72
2023/05/28 00:35:32;;;;;;;16.13;5.88;;;;;;;;;;5034364;28;20033;-72
2023/05/28 00:37:58;;;;;;;16.83;5.57;;;;;;;;;;5032494;28;20044;-71
2023/05/28 00:40:23;;;;;;;18.13;5.80;;;;;;;;;;5025265;28;20468;-71
2023/05/28 00:42:48;;;;;;;15.30;6.00;;;;;;;;;;5026613;28;20026;-72
2023/05/28 00:45:14;;;;;;;18.00;6.07;;;;;;;;;;5025536;28;20045;-72
2023/05/28 00:47:41;;;;;;;15.77;6.00;;;;;;;;;;5025182;28;20030;-72
2023/05/28 00:50:10;;;;;;;13.05;5.40;;;;;;;;;;5019194;28;20102;-72
2023/05/28 00:52:36;;;;;;;19.92;6.43;;;;;;;;;;5026982;28;20029;-72
2023/05/28 00:55:02;;;;;;;20.20;5.93;;;;;;;;;;5025442;28;20362;-72
2023/05/28 00:57:28;;;;;;;15.18;5.30;;;;;;;;;;5020294;28;20514;-71
2023/05/28 00:59:57;;;;;;;12.95;6.07;;;;;;;;;;5018470;28;20029;-72
2023/05/28 01:02:22;;;;;;;17.02;5.82;;;;;;;;;;5021788;28;20525;-72
2023/05/28 01:04:48;;;;;;;19.20;6.25;;;;;;;;;;5024475;28;20502;-72
2023/05/28 01:07:13;;;;;;;14.80;5.38;;;;;;;;;;5027238;28;20056;-72
2023/05/28 01:09:39;;;;;;;14.60;5.90;;;;;;;;;;5018539;28;20033;-71
2023/05/28 01:12:06;;;;;;;13.68;5.50;;;;;;;;;;5023107;28;20175;-72
2023/05/28 01:14:32;;;;;;;15.18;6.38;;;;;;;;;;5024182;28;20097;-72
2023/05/28 01:16:58;;;;;;;13.88;5.45;;;;;;;;;;5025788;28;20029;-72
2023/05/28 01:19:26;;;;;;;14.25;6.28;;;;;;;;;;5025962;28;20029;-72
2023/05/28 01:21:57;;;;;;;14.32;5.57;;;;;;;;;;5026101;28;20756;-72
2023/05/28 01:24:24;;;;;;;15.20;5.78;;;;;;;;;;5019345;28;20064;-72
2023/05/28 01:26:50;;;;;;;16.45;5.60;;;;;;;;;;5015516;28;20068;-72
2023/05/28 01:29:16;;;;;;;11.65;5.50;;;;;;;;;;5016893;28;20132;-72
2023/05/28 01:31:43;;;;;;;13.32;5.75;;;;;;;;;;5023824;28;20042;-72
2023/05/28 01:34:10;;;;;;;18.13;6.28;;;;;;;;;;5024380;28;20032;-72
2023/05/28 01:36:40;;;;;;;18.27;6.03;;;;;;;;;;5023979;28;20422;-72
2023/05/28 01:39:06;;;;;;;16.85;5.90;;;;;;;;;;5009618;28;20049;-72
2023/05/28 01:41:32;;;;;;;14.07;5.47;;;;;;;;;;5013602;28;20033;-73
2023/05/28 01:43:59;;;;;;;13.63;5.72;;;;;;;;;;5017226;28;20041;-73
2023/05/28 01:46:26;;;;;;;14.10;5.45;;;;;;;;;;5012060;28;20774;-72
2023/05/28 01:48:51;;;;;;;12.65;5.55;;;;;;;;;;5015484;28;20029;-73
2023/05/28 01:51:20;;;;;;;14.38;5.80;;;;;;;;;;5025582;28;20034;-73
2023/05/28 01:53:46;;;;;;;16.40;6.53;;;;;;;;;;5024837;28;20033;-73
2023/05/28 01:56:11;;;;;;;14.85;5.90;;;;;;;;;;5017540;28;20034;-72
2023/05/28 01:58:36;;;;;;;18.27;6.30;;;;;;;;;;5020862;28;20014;-72
2023/05/28 02:01:14;;;;;;;16.67;6.18;;;;;;;;;;5029070;28;20025;-72
2023/05/28 02:03:39;;;;;;;16.60;6.13;;;;;;;;;;5026926;28;20144;-73
2023/05/28 02:06:05;;;;;;;13.82;5.95;;;;;;;;;;5020865;28;20426;-72
2023/05/28 02:08:30;;;;;;;15.57;6.35;;;;;;;;;;5019810;28;20179;-73
2023/05/28 02:10:56;;;;;;;16.15;6.75;;;;;;;;;;5024818;28;20030;-72
2023/05/28 02:13:21;;;;;;;17.85;6.35;;;;;;;;;;5025183;28;20522;-72
2023/05/28 02:15:46;;;;;;;16.27;6.30;;;;;;;;;;5025179;28;20017;-72
2023/05/28 02:18:12;;;;;;;15.07;5.90;;;;;;;;;;5022987;28;20041;-73
2023/05/28 02:20:37;;;;;;;18.38;7.22;;;;;;;;;;5023804;28;20037;-72
2023/05/28 02:23:02;;;;;;;16.60;5.90;;;;;;;;;;5015029;28;20109;-72
2023/05/28 02:25:28;;;;;;;16.23;6.40;;;;;;;;;;5005426;28;20043;-72
2023/05/28 02:27:53;;;;;;;17.45;6.40;;;;;;;;;;5024597;28;20018;-72
2023/05/28 02:30:18;;;;;;;18.13;6.85;;;;;;;;;;5024646;28;20037;-72
2023/05/28 02:32:44;;;;;;;16.80;7.20;;;;;;;;;;5023760;28;20061;-72
2023/05/28 02:35:09;;;;;;;17.60;6.32;;;;;;;;;;5024397;28;20430;-73
2023/05/28 02:37:34;;;;;;;18.95;6.82;;;;;;;;;;5022999;28;20601;-72
2023/05/28 02:40:00;;;;;;;16.95;6.53;;;;;;;;;;5021842;28;20021;-73
2023/05/28 02:42:25;;;;;;;14.55;6.63;;;;;;;;;;5024720;28;20511;-73
2023/05/28 02:44:50;;;;;;;18.38;6.57;;;;;;;;;;5024113;28;20514;-73
2023/05/28 02:47:16;;;;;;;15.18;6.28;;;;;;;;;;5015025;28;20034;-73
2023/05/28 02:49:41;;;;;;;20.75;7.45;;;;;;;;;;5022119;28;20041;-73
2023/05/28 02:52:06;;;;;;;21.42;6.85;;;;;;;;;;5023480;28;20112;-73
2023/05/28 02:54:32;;;;;;;16.88;6.72;;;;;;;;;;5018589;28;20037;-72
2023/05/28 02:56:57;;;;;;;14.85;6.70;;;;;;;;;;5019379;28;20037;-73
2023/05/28 02:59:23;;;;;;;16.92;6.75;;;;;;;;;;5022321;28;20075;-72
2023/05/28 03:01:48;;;;;;;13.68;6.00;;;;;;;;;;5024185;28;20207;-72
2023/05/28 03:04:13;;;;;;;18.25;6.90;;;;;;;;;;5024134;28;20410;-72
2023/05/28 03:06:41;;;;;;;19.02;7.57;;;;;;;;;;5022273;28;20495;-72
2023/05/28 03:09:06;;;;;;;17.58;7.38;;;;;;;;;;5016367;28;20052;-72
2023/05/28 03:11:31;;;;;;;22.20;7.25;;;;;;;;;;5013507;28;20589;-73
2023/05/28 03:13:57;;;;;;;22.52;6.40;;;;;;;;;;5024415;28;20061;-72
2023/05/28 03:16:24;;;;;;;16.42;6.40;;;;;;;;;;5017375;28;20039;-72
2023/05/28 03:18:50;;;;;;;17.20;6.90;;;;;;;;;;5023559;28;20033;-72
2023/05/28 03:21:15;;;;;;;21.15;6.90;;;;;;;;;;5031761;28;20041;-73
2023/05/28 03:23:40;;;;;;;21.77;7.15;;;;;;;;;;5033091;28;20041;-73
2023/05/28 03:26:06;;;;;;;20.00;6.95;;;;;;;;;;5022619;28;20057;-72
2023/05/28 03:28:31;;;;;;;16.55;6.47;;;;;;;;;;5022814;28;20076;-72
2023/05/28 03:30:59;;;;;;;21.88;7.22;;;;;;;;;;5017876;28;20026;-72
2023/05/28 03:33:24;;;;;;;18.88;7.07;;;;;;;;;;5023844;28;20037;-72
2023/05/28 03:35:50;;;;;;;19.02;7.63;;;;;;;;;;5022188;28;20038;-72
2023/05/28 03:38:15;;;;;;;16.90;6.93;;;;;;;;;;5021178;28;20124;-72
2023/05/28 03:40:40;;;;;;;17.90;6.65;;;;;;;;;;5023716;28;20056;-72
2023/05/28 03:43:07;;;;;;;13.68;6.55;;;;;;;;;;5023627;28;20487;-72
2023/05/28 03:45:32;;;;;;;20.63;7.28;;;;;;;;;;5022449;28;20056;-72
2023/05/28 03:47:59;;;;;;;16.20;6.95;;;;;;;;;;5022863;28;20029;-72
2023/05/28 03:50:24;;;;;;;16.30;7.38;;;;;;;;;;5023913;28;20037;-73
2023/05/28 03:52:50;;;;;;;19.38;7.28;;;;;;;;;;5023880;28;20034;-72
2023/05/28 03:55:16;;;;;;;17.98;6.97;;;;;;;;;;5020080;28;20041;-72
2023/05/28 03:57:41;;;;;;;13.95;6.53;;;;;;;;;;5006049;28;20447;-72
2023/05/28 04:00:08;;;;;;;17.80;6.85;;;;;;;;;;5023714;28;20041;-72
2023/05/28 04:02:34;;;;;;;19.05;6.50;;;;;;;;;;5022007;28;20538;-72
2023/05/28 04:05:00;;;;;;;19.02;7.00;;;;;;;;;;5021817;28;20033;-72
2023/05/28 04:07:25;;;;;;;17.70;7.20;;;;;;;;;;5023729;28;20528;-72
2023/05/28 04:09:51;;;;;;;20.30;7.45;;;;;;;;;;5023706;28;20025;-72
2023/05/28 04:12:16;;;;;;;17.73;6.60;;;;;;;;;;5023111;28;20041;-72
2023/05/28 04:14:42;;;;;;;17.10;7.32;;;;;;;;;;5023034;28;20025;-72
2023/05/28 04:17:12;;;;;;;18.25;7.47;;;;;;;;;;5021002;28;20033;-72
2023/05/28 04:19:38;;;;;;;18.40;8.40;;;;;;;;;;5022299;28;20025;-72
2023/05/28 04:22:04;;;;;;;19.80;7.22;;;;;;;;;;5022189;28;20029;-72
2023/05/28 04:24:29;;;;;;;19.05;7.05;;;;;;;;;;5021685;28;20033;-72
2023/05/28 04:26:56;;;;;;;20.42;7.57;;;;;;;;;;5022046;28;20091;-72
2023/05/28 04:29:23;;;;;;;20.70;7.60;;;;;;;;;;5021484;28;20029;-72
2023/05/28 04:31:49;;;;;;;22.90;7.25;;;;;;;;;;5023444;28;20037;-72
2023/05/28 04:34:17;;;;;;;18.13;7.95;;;;;;;;;;5023079;28;20030;-72
2023/05/28 04:36:43;;;;;;;17.42;7.22;;;;;;;;;;5021997;28;20121;-72
2023/05/28 04:39:09;;;;;;;15.05;6.72;;;;;;;;;;5022448;28;20053;-72
2023/05/28 04:41:34;;;;;;;19.08;7.35;;;;;;;;;;5028122;28;20043;-72
2023/05/28 04:43:59;;;;;;;15.80;6.78;;;;;;;;;;5034110;28;20038;-72
2023/05/28 04:46:25;;;;;;;16.83;6.95;;;;;;;;;;5036993;28;20029;-72
2023/05/28 04:48:52;;;;;;;19.80;7.82;;;;;;;;;;5018591;28;20037;-73
2023/05/28 04:51:18;;;;;;;15.05;6.68;;;;;;;;;;5026757;28;20507;-72
2023/05/28 04:53:43;;;;;;;16.48;8.15;;;;;;;;;;5027353;28;20040;-72
2023/05/28 04:56:10;;;;;;;16.75;7.18;;;;;;;;;;5025386;28;20038;-72
2023/05/28 04:58:36;;;;;;;16.25;7.07;;;;;;;;;;5026423;28;20064;-72
2023/05/28 05:01:01;;;;;;;18.20;7.70;;;;;;;;;;5025153;28;20029;-72
2023/05/28 05:03:27;;;;;;;19.95;7.20;;;;;;;;;;5026111;28;20034;-73
2023/05/28 05:05:52;;;;;;;19.10;6.90;;;;;;;;;;5026135;28;20119;-73
2023/05/28 05:08:17;;;;;;;18.58;7.38;;;;;;;;;;5026448;28;20084;-73
2023/05/28 05:10:43;;;;;;;18.88;7.88;;;;;;;;;;5025935;28;20044;-73
2023/05/28 05:13:08;;;;;;;17.58;7.18;;;;;;;;;;5025873;28;20526;-73
2023/05/28 05:15:34;;;;;;;18.40;7.68;;;;;;;;;;5024385;28;20033;-73
2023/05/28 05:17:59;;;;;;;21.48;7.10;;;;;;;;;;5026277;28;20038;-73
2023/05/28 05:20:26;;;;;;;18.60;7.07;;;;;;;;;;5025820;28;20081;-73
2023/05/28 05:22:52;;;;;;;22.10;8.00;;;;;;;;;;5026014;28;20029;-73
2023/05/28 05:25:17;;;;;;;20.42;8.02;;;;;;;;;;5025836;28;20032;-73
2023/05/28 05:27:42;;;;;;;18.17;7.57;;;;;;;;;;5025558;28;20034;-73
2023/05/28 05:30:08;;;;;;;23.77;9.05;;;;;;;;;;5023272;28;20438;-73
2023/05/28 05:32:34;;;;;;;20.10;8.00;;;;;;;;;;5026082;28;20570;-73
2023/05/28 05:34:59;;;;;;;18.20;7.72;;;;;;;;;;5025386;28;20037;-73
2023/05/28 05:37:24;;;;;;;17.67;7.97;;;;;;;;;;5023641;28;20506;-72
2023/05/28 05:39:50;;;;;;;18.00;7.95;;;;;;;;;;5023447;28;20021;-73
2023/05/28 05:42:15;;;;;;;19.33;7.75;;;;;;;;;;5022893;28;20041;-73
2023/05/28 05:44:40;;;;;;;20.38;8.35;;;;;;;;;;5022465;28;20079;-73
2023/05/28 05:47:06;;;;;;;20.90;8.15;;;;;;;;;;5021122;28;20045;-73
2023/05/28 05:49:31;;;;;;;22.00;7.95;;;;;;;;;;5019737;28;20079;-72
2023/05/28 05:51:56;;;;;;;23.48;8.23;;;;;;;;;;5018321;28;20494;-73
2023/05/28 05:54:22;;;;;;;22.50;8.13;;;;;;;;;;5014813;28;20486;-72
2023/05/28 05:56:47;;;;;;;23.55;8.05;;;;;;;;;;5019665;28;20034;-73
2023/05/28 05:59:12;;;;;;;16.25;7.63;;;;;;;;;;5013497;28;20052;-72
2023/05/28 06:01:38;;;;;;;22.88;8.93;;;;;;;;;;5011941;28;20072;-72
2023/05/28 06:04:03;;;;;;;16.38;7.50;;;;;;;;;;5024808;28;20048;-72
2023/05/28 06:06:28;;;;;;;22.00;8.30;;;;;;;;;;5025901;28;20481;-72
2023/05/28 06:08:54;;;;;;;17.80;8.35;;;;;;;;;;5025228;28;20038;-72
2023/05/28 06:11:19;;;;;;;21.05;8.30;;;;;;;;;;5021112;28;20041;-72
2023/05/28 06:13:45;;;;;;;22.10;7.82;;;;;;;;;;5017502;28;20044;-72
2023/05/28 06:16:11;;;;;;;19.48;8.77;;;;;;;;;;5017683;28;20060;-72
2023/05/28 06:18:36;;;;;;;23.42;8.30;;;;;;;;;;5025025;28;20537;-73
2023/05/28 06:21:03;;;;;;;20.20;8.38;;;;;;;;;;5024441;28;20056;-72
2023/05/28 06:23:28;;;;;;;20.38;8.00;;;;;;;;;;5024194;28;20075;-72
2023/05/28 06:25:54;;;;;;;16.20;7.82;;;;;;;;;;5024238;28;20064;-73
2023/05/28 06:28:19;;;;;;;20.33;7.78;;;;;;;;;;5024835;28;20072;-72
2023/05/28 06:30:44;;;;;;;20.63;8.63;;;;;;;;;;5013604;28;20037;-72
2023/05/28 06:33:10;;;;;;;20.67;8.45;;;;;;;;;;5007616;28;20526;-72
2023/05/28 06:35:35;;;;;;;16.38;7.80;;;;;;;;;;5010035;28;20040;-72
2023/05/28 06:38:01;;;;;;;22.48;8.73;;;;;;;;;;5010525;28;20681;-72
2023/05/28 06:40:27;;;;;;;22.13;7.93;;;;;;;;;;5012620;28;20022;-72
2023/05/28 06:42:52;;;;;;;20.23;7.38;;;;;;;;;;5024066;28;20025;-72
2023/05/28 06:45:18;;;;;;;25.88;8.32;;;;;;;;;;5019723;28;20065;-72
2023/05/28 06:47:44;;;;;;;28.27;8.48;;;;;;;;;;5023680;28;20091;-72
2023/05/28 06:50:10;;;;;;;18.80;7.68;;;;;;;;;;5024427;28;20029;-72
2023/05/28 06:52:35;;;;;;;20.95;8.30;;;;;;;;;;5017175;28;20376;-72
2023/05/28 06:55:01;;;;;;;22.02;8.45;;;;;;;;;;5019066;28;20547;-72
2023/05/28 06:57:26;;;;;;;19.70;8.20;;;;;;;;;;5014385;28;20128;-72
2023/05/28 06:59:52;;;;;;;19.60;8.23;;;;;;;;;;5011971;28;20056;-72
2023/05/28 07:02:17;;;;;;;19.52;8.43;;;;;;;;;;5017179;28;20084;-72
2023/05/28 07:04:42;;;;;;;17.13;8.13;;;;;;;;;;5014657;28;20048;-72
2023/05/28 07:07:08;;;;;;;19.13;8.18;;;;;;;;;;5011695;28;20563;-72
2023/05/28 07:09:34;;;;;;;22.10;8.30;;;;;;;;;;5017868;28;20069;-72
2023/05/28 07:12:00;;;;;;;19.27;7.38;;;;;;;;;;5014100;28;20588;-72
2023/05/28 07:14:25;;;;;;;20.38;8.25;;;;;;;;;;5016209;28;20029;-72
2023/05/28 07:16:51;;;;;;;20.52;8.15;;;;;;;;;;5013257;28;20033;-72
2023/05/28 07:19:17;;;;;;;17.33;7.70;;;;;;;;;;5011224;28;20025;-72
2023/05/28 07:21:42;;;;;;;18.83;8.30;;;;;;;;;;5018591;28;20091;-72
2023/05/28 07:24:07;;;;;;;16.27;7.30;;;;;;;;;;5021407;28;20095;-72
2023/05/28 07:26:33;;;;;;;16.05;7.05;;;;;;;;;;5020018;28;20040;-72
2023/05/28 07:29:00;;;;;;;12.95;6.85;;;;;;;;;;5020998;28;20045;-72
2023/05/28 07:31:26;;;;;;;15.82;6.63;;;;;;;;;;5028392;28;20128;-72
2023/05/28 07:33:51;;;;;;;13.70;7.03;;;;;;;;;;5013521;28;20025;-72
2023/05/28 07:36:16;;;;;;;18.33;7.40;;;;;;;;;;5009811;28;20060;-72
2023/05/28 07:38:42;;;;;;;16.73;6.53;;;;;;;;;;5011498;28;20045;-72
2023/05/28 07:41:08;;;;;;;14.15;6.60;;;;;;;;;;5014408;28;20095;-72
2023/05/28 07:43:33;;;;;;;13.80;6.63;;;;;;;;;;5012710;28;20060;-72
2023/05/28 07:45:58;;;;;;;16.63;5.80;;;;;;;;;;5013240;28;20039;-72
2023/05/28 07:48:24;;;;;;;15.35;6.32;;;;;;;;;;5011357;28;20401;-72
2023/05/28 07:50:49;;;;;;;12.63;6.50;;;;;;;;;;5016549;28;20048;-72
2023/05/28 07:53:16;;;;;;;14.48;5.90;;;;;;;;;;5007916;28;20052;-73
2023/05/28 07:55:41;;;;;;;15.13;5.82;;;;;;;;;;5012515;28;20045;-72
2023/05/28 07:58:07;;;;;;;15.93;6.55;;;;;;;;;;5013531;28;20029;-73
2023/05/28 08:00:32;;;;;;;14.02;5.85;;;;;;;;;;5012542;28;20142;-72
2023/05/28 08:02:57;;;;;;;16.40;5.38;;;;;;;;;;5013910;28;20038;-72
2023/05/28 08:05:24;;;;;;;17.70;6.05;;;;;;;;;;5013621;28;20150;-72
2023/05/28 08:07:49;;;;;;;13.52;6.05;;;;;;;;;;5011895;28;20053;-72
2023/05/28 08:10:15;;;;;;;11.57;5.30;;;;;;;;;;5016047;28;20130;-72
2023/05/28 08:12:40;;;;;;;12.02;5.20;;;;;;;;;;5015570;28;20128;-73
2023/05/28 08:15:06;;;;;;;15.45;5.22;;;;;;;;;;5012912;28;20412;-72
2023/05/28 08:17:31;;;;;;;12.30;5.70;;;;;;;;;;5019842;28;20064;-72
2023/05/28 08:19:57;;;;;;;14.23;5.35;;;;;;;;;;5020271;28;20053;-72
2023/05/28 08:22:22;;;;;;;12.27;4.68;;;;;;;;;;5024090;28;20037;-73
2023/05/28 08:24:48;;;;;;;14.10;5.18;;;;;;;;;;5019409;28;20525;-72
2023/05/28 08:27:13;;;;;;;11.18;4.40;;;;;;;;;;5023306;28;20560;-72
2023/05/28 08:29:38;;;;;;;11.00;5.50;;;;;;;;;;5018754;28;20033;-73
2023/05/28 08:32:04;;;;;;;10.60;4.15;;;;;;;;;;5014552;28;20053;-72
2023/05/28 08:34:30;;;;;;;10.68;4.38;;;;;;;;;;5015222;28;20044;-72
2023/05/28 08:36:55;;;;;;;9.70;4.20;;;;;;;;;;5020098;28;20141;-72
2023/05/28 08:39:23;;;;;;;9.50;3.95;;;;;;;;;;5016874;28;20087;-72
2023/05/28 08:41:49;;;;;;;9.55;4.00;;;;;;;;;;5021296;28;20111;-72
2023/05/28 08:44:14;;;;;;;15.52;4.25;;;;;;;;;;5019230;28;20558;-72
2023/05/28 08:46:41;;;;;;;8.75;3.63;;;;;;;;;;5020308;28;21046;-72
2023/05/28 08:49:08;;;;;;;9.60;4.05;;;;;;;;;;5020984;28;20051;-72
2023/05/28 08:51:36;;;;;;;8.60;3.83;;;;;;;;;;5029629;28;20041;-72
2023/05/28 08:54:02;;;;;;;8.77;3.78;;;;;;;;;;5027565;28;20034;-73
2023/05/28 08:56:28;;;;;;;11.95;4.35;;;;;;;;;;5013389;28;20999;-72
2023/05/28 08:58:53;;;;;;;15.38;10.48;;;;;;;;;;5015755;28;20045;-73
2023/05/28 09:01:20;;;;;;;8.70;4.07;;;;;;;;;;5015258;28;20523;-72
2023/05/28 09:03:45;;;;;;;8.23;4.10;;;;;;;;;;5010073;28;20037;-73
2023/05/28 09:06:12;;;;;;;13.07;4.80;;;;;;;;;;5014107;28;20080;-72
2023/05/28 09:08:37;;;;;;;8.73;4.20;;;;;;;;;;5025549;28;20060;-73
2023/05/28 09:11:14;;;;;;;12.43;4.50;;;;;;;;;;5025992;28;20041;-73
2023/05/28 09:13:47;;;;;;;7.78;3.95;;;;;;;;;;5025557;28;20021;-73
2023/05/28 09:16:23;;;;;;;8.45;4.03;;;;;;;;;;5025440;28;20021;-73
2023/05/28 09:18:50;;;;;;;11.50;4.72;;;;;;;;;;5022327;28;20069;-73
2023/05/28 09:21:16;;;;;;;11.45;4.25;;;;;;;;;;5020586;28;20052;-73
2023/05/28 09:23:45;;;;;;;12.85;4.43;;;;;;;;;;5015004;28;20033;-72
2023/05/28 09:26:11;;;;;;;10.15;4.30;;;;;;;;;;5015713;28;20073;-72
2023/05/28 09:28:41;;;;;;;11.05;4.30;;;;;;;;;;5015990;28;20128;-73
2023/05/28 09:31:06;;;;;;;7.70;4.18;;;;;;;;;;5013351;28;20033;-73
2023/05/28 09:33:33;;;;;;;11.00;4.40;;;;;;;;;;5025488;28;20549;-73
2023/05/28 09:36:00;;;;;;;10.38;4.75;;;;;;;;;;5009985;28;20109;-72
2023/05/28 09:38:26;;;;;;;8.43;3.97;;;;;;;;;;5015910;28;20252;-72
2023/05/28 09:40:53;;;;;;;12.93;4.50;;;;;;;;;;5022221;28;20113;-72
2023/05/28 09:43:28;;;;;;;10.07;4.00;;;;;;;;;;5013982;28;20061;-72
2023/05/28 09:46:06;;;;;;;11.70;4.88;;;;;;;;;;5018981;28;20106;-72
2023/05/28 09:48:31;;;;;;;9.10;4.65;;;;;;;;;;5017914;28;20068;-72
2023/05/28 09:50:59;;;;;;;8.18;4.30;;;;;;;;;;5015350;28;20077;-72
2023/05/28 09:53:25;;;;;;;14.50;4.50;;;;;;;;;;5018015;28;20071;-73
2023/05/28 09:55:51;;;;;;;10.00;4.60;;;;;;;;;;5019378;28;20057;-72
2023/05/28 09:58:17;;;;;;;13.02;5.07;;;;;;;;;;5031596;28;20406;-72
2023/05/28 10:00:54;;;;;;;7.72;4.30;;;;;;;;;;5019339;28;20546;-72
2023/05/28 10:03:28;;;;;;;10.80;4.32;;;;;;;;;;5018736;28;20056;-73
2023/05/28 10:05:59;;;;;;;13.48;4.20;;;;;;;;;;5025096;28;20124;-72
2023/05/28 10:08:25;;;;;;;9.38;4.32;;;;;;;;;;5019717;28;20037;-72
2023/05/28 10:10:53;;;;;;;10.80;4.55;;;;;;;;;;5019400;28;20037;-72
2023/05/28 10:13:19;;;;;;;8.38;4.30;;;;;;;;;;5012474;28;20040;-72
2023/05/28 10:15:45;;;;;;;8.85;4.00;;;;;;;;;;5041085;28;20049;-72
2023/05/28 10:18:11;;;;;;;11.25;4.25;;;;;;;;;;5017828;28;20042;-72
2023/05/28 10:20:38;;;;;;;11.35;5.50;;;;;;;;;;5015079;28;20042;-72
2023/05/28 10:23:03;;;;;;;9.63;4.03;;;;;;;;;;5015007;28;20171;-72
2023/05/28 10:25:29;;;;;;;11.43;5.05;;;;;;;;;;5006882;28;20475;-72
2023/05/28 10:28:02;;;;;;;12.77;4.90;;;;;;;;;;5015501;28;20067;-72
2023/05/28 10:30:36;;;;;;;13.30;5.72;;;;;;;;;;5022501;28;20033;-73
2023/05/28 10:33:11;;;;;;;8.73;4.35;;;;;;;;;;5024495;28;20059;-72
2023/05/28 10:35:53;;;;;;;11.10;4.35;;;;;;;;;;5024309;28;20600;-73
2023/05/28 10:38:18;;;;;;;10.70;4.90;;;;;;;;;;5022649;28;20585;-72
2023/05/28 10:40:43;;;;;;;11.38;4.57;;;;;;;;;;5023719;28;20556;-73
2023/05/28 10:43:41;;;;;;;7.53;4.18;;;;;;;;;;5024060;28;20037;-73
2023/05/28 10:46:10;;;;;;;10.52;4.85;;;;;;;;;;5024177;28;20049;-73
2023/05/28 10:48:40;;;;;;;9.48;4.60;;;;;;;;;;5024285;28;20061;-73
2023/05/28 10:51:06;;;;;;;9.32;4.30;;;;;;;;;;5019270;28;20527;-72
2023/05/28 10:53:32;;;;;;;11.70;4.60;;;;;;;;;;5015102;28;20562;-73
2023/05/28 10:55:57;;;;;;;15.25;4.38;;;;;;;;;;5012848;28;20046;-72
2023/05/28 10:58:22;;;;;;;15.05;5.57;;;;;;;;;;5017477;28;20041;-72
2023/05/28 11:00:48;;;;;;;10.77;4.38;;;;;;;;;;5016742;28;20029;-72
2023/05/28 11:03:14;;;;;;;11.75;4.47;;;;;;;;;;5016281;28;20049;-72
2023/05/28 11:05:41;;;;;;;12.30;4.47;;;;;;;;;;5016168;28;20430;-72
2023/05/28 11:08:08;;;;;;;11.57;4.97;;;;;;;;;;5022102;28;20694;-72
2023/05/28 11:10:34;;;;;;;11.35;4.72;;;;;;;;;;5020865;28;20136;-72
2023/05/28 11:13:00;;;;;;;14.10;4.10;;;;;;;;;;5022481;28;20120;-72
2023/05/28 11:15:25;;;;;;;8.27;4.20;;;;;;;;;;5022715;28;20033;-72
2023/05/28 11:17:51;;;;;;;11.30;4.78;;;;;;;;;;5023263;28;20041;-72
2023/05/28 11:20:17;;;;;;;10.57;4.53;;;;;;;;;;5017130;28;20128;-72
2023/05/28 11:22:43;;;;;;;10.20;4.25;;;;;;;;;;5018382;28;20025;-72
2023/05/28 11:25:09;;;;;;;9.73;4.18;;;;;;;;;;5024725;28;20036;-73
2023/05/28 11:27:36;;;;;;;11.57;4.35;;;;;;;;;;5023993;28;20037;-73
2023/05/28 11:30:14;;;;;;;9.32;3.95;;;;;;;;;;5018956;28;20033;-73
2023/05/28 11:32:40;;;;;;;11.45;4.32;;;;;;;;;;5015057;28;20037;-72
2023/05/28 11:35:06;;;;;;;11.55;4.10;;;;;;;;;;5025043;28;20033;-72
2023/05/28 11:37:33;;;;;;;8.60;4.20;;;;;;;;;;5027331;28;20026;-72
2023/05/28 11:40:00;;;;;;;9.23;4.38;;;;;;;;;;5019091;28;20030;-72
2023/05/28 11:42:31;;;;;;;9.30;3.97;;;;;;;;;;5019344;28;20046;-72
2023/05/28 11:44:57;;;;;;;11.43;4.15;;;;;;;;;;5014061;28;20483;-72
2023/05/28 11:47:24;;;;;;;6.60;4.13;;;;;;;;;;5018005;28;20767;-72
2023/05/28 11:49:50;;;;;;;10.48;4.70;;;;;;;;;;5010673;28;20060;-72
2023/05/28 11:52:24;;;;;;;9.75;4.57;;;;;;;;;;5018172;28;20507;-72
2023/05/28 11:54:57;;;;;;;9.80;4.75;;;;;;;;;;5009200;28;20053;-71
2023/05/28 11:57:28;;;;;;;11.60;4.63;;;;;;;;;;5011682;28;20038;-73
2023/05/28 12:00:11;;;;;;;10.18;4.60;;;;;;;;;;5017432;28;20132;-72
2023/05/28 12:02:48;;;;;;;8.75;4.30;;;;;;;;;;5016388;28;20052;-72
2023/05/28 12:05:15;;;;;;;11.85;4.82;;;;;;;;;;5018332;28;20054;-72
2023/05/28 12:07:53;;;;;;;9.13;4.30;;;;;;;;;;5017291;28;20104;-73
2023/05/28 12:10:21;;;;;;;13.00;4.70;;;;;;;;;;5020411;28;20117;-72
2023/05/28 12:12:52;;;;;;;9.18;4.85;;;;;;;;;;5020200;28;20037;-72
2023/05/28 12:15:20;;;;;;;9.82;4.47;;;;;;;;;;5022845;28;20037;-72
2023/05/28 12:17:51;;;;;;;11.02;4.78;;;;;;;;;;5017213;28;20091;-72
2023/05/28 12:20:16;;;;;;;10.50;4.65;;;;;;;;;;5010833;28;20085;-72
2023/05/28 12:22:42;;;;;;;8.80;4.75;;;;;;;;;;5014994;28;20759;-73
2023/05/28 12:25:09;;;;;;;10.77;4.45;;;;;;;;;;5026470;28;20503;-72
2023/05/28 12:27:35;;;;;;;12.07;4.95;;;;;;;;;;5017732;28;20435;-72
2023/05/28 12:30:01;;;;;;;9.75;4.45;;;;;;;;;;5011825;28;20042;-72
2023/05/28 12:32:26;;;;;;;11.85;4.97;;;;;;;;;;5015786;28;20063;-72
2023/05/28 12:34:56;;;;;;;10.05;4.28;;;;;;;;;;5009244;28;20105;-72
2023/05/28 12:37:25;;;;;;;10.38;4.70;;;;;;;;;;5019128;28;20040;-72
2023/05/28 12:39:51;;;;;;;11.20;5.18;;;;;;;;;;5014718;28;20927;-72
2023/05/28 12:42:17;;;;;;;10.50;4.70;;;;;;;;;;5018336;28;20095;-72
2023/05/28 12:44:42;;;;;;;12.15;4.38;;;;;;;;;;5017348;28;20038;-72
2023/05/28 12:47:08;;;;;;;14.50;5.10;;;;;;;;;;5020006;28;20034;-72
2023/05/28 12:49:33;;;;;;;11.77;4.68;;;;;;;;;;5019671;28;20029;-72
2023/05/28 12:51:58;;;;;;;9.32;4.60;;;;;;;;;;5015132;28;20037;-72
2023/05/28 12:54:24;;;;;;;9.43;4.35;;;;;;;;;;5020420;28;20029;-72
2023/05/28 12:56:49;;;;;;;10.32;4.15;;;;;;;;;;5018429;28;20037;-72
2023/05/28 12:59:25;;;;;;;10.25;4.32;;;;;;;;;;5024303;28;20045;-72
2023/05/28 13:01:51;;;;;;;10.40;4.57;;;;;;;;;;5020690;28;20056;-72
2023/05/28 13:04:17;;;;;;;10.82;4.65;;;;;;;;;;5024356;28;20037;-72
2023/05/28 13:06:43;;;;;;;9.27;4.20;;;;;;;;;;5019341;28;20037;-72
2023/05/28 13:09:11;;;;;;;9.18;4.60;;;;;;;;;;5014681;28;20038;-72
2023/05/28 13:11:37;;;;;;;12.82;4.45;;;;;;;;;;5017490;28;20080;-72
2023/05/28 13:14:02;;;;;;;9.93;4.35;;;;;;;;;;5015168;28;20163;-72
2023/05/28 13:16:27;;;;;;;11.88;4.30;;;;;;;;;;5017452;28;20128;-73
2023/05/28 13:18:53;;;;;;;11.95;4.68;;;;;;;;;;5019274;28;20119;-72
2023/05/28 13:21:18;;;;;;;8.63;4.30;;;;;;;;;;5020034;28;20041;-72
2023/05/28 13:23:43;;;;;;;8.73;4.22;;;;;;;;;;5020226;28;20042;-72
2023/05/28 13:26:09;;;;;;;14.68;4.75;;;;;;;;;;5025335;28;20045;-73
2023/05/28 13:28:35;;;;;;;9.07;4.30;;;;;;;;;;5023757;28;20033;-72
2023/05/28 13:31:00;;;;;;;11.48;4.93;;;;;;;;;;5026308;28;20104;-73
2023/05/28 13:33:25;;;;;;;10.32;4.03;;;;;;;;;;5024689;28;20120;-73
2023/05/28 13:35:51;;;;;;;11.40;4.80;;;;;;;;;;5011874;28;20152;-73
2023/05/28 13:38:16;;;;;;;7.97;4.60;;;;;;;;;;5018948;28;20118;-73
2023/05/28 13:40:42;;;;;;;10.02;4.50;;;;;;;;;;5026652;28;20033;-73
2023/05/28 13:43:07;;;;;;;8.85;4.43;;;;;;;;;;5025914;28;20025;-73
2023/05/28 13:45:33;;;;;;;8.20;4.57;;;;;;;;;;5025055;28;20133;-73
2023/05/28 13:47:59;;;;;;;8.65;4.50;;;;;;;;;;5013544;28;20576;-73
2023/05/28 13:50:24;;;;;;;10.27;4.30;;;;;;;;;;5025629;28;20491;-73
2023/05/28 13:52:50;;;;;;;9.38;4.28;;;;;;;;;;5022772;28;20033;-73
2023/05/28 13:55:15;;;;;;;10.02;4.40;;;;;;;;;;5014859;28;20582;-73
2023/05/28 13:57:41;;;;;;;6.72;4.32;;;;;;;;;;5017595;28;20053;-72
2023/05/28 14:00:09;;;;;;;7.90;4.38;;;;;;;;;;5019743;28;20064;-73
2023/05/28 14:02:35;;;;;;;7.82;4.50;;;;;;;;;;5019195;28;20129;-73
2023/05/28 14:05:00;;;;;;;9.55;4.95;;;;;;;;;;5017891;28;20132;-72
2023/05/28 14:07:26;;;;;;;12.00;5.32;;;;;;;;;;5016215;28;20030;-72
2023/05/28 14:09:51;;;;;;;9.48;4.90;;;;;;;;;;5012175;28;20028;-72
2023/05/28 14:12:16;;;;;;;7.25;4.30;;;;;;;;;;5009916;28;20698;-72
2023/05/28 14:14:42;;;;;;;7.78;4.50;;;;;;;;;;5014953;28;20034;-73
2023/05/28 14:17:07;;;;;;;8.57;4.25;;;;;;;;;;5015855;28;20046;-72
2023/05/28 14:19:32;;;;;;;8.10;5.32;;;;;;;;;;5016704;28;20107;-73
2023/05/28 14:21:57;;;;;;;9.15;4.28;;;;;;;;;;5010788;28;20427;-73
2023/05/28 14:24:23;;;;;;;9.60;4.35;;;;;;;;;;5033474;28;20068;-73
2023/05/28 14:26:48;;;;;;;7.75;4.70;;;;;;;;;;5022342;28;20060;-73
2023/05/28 14:29:13;;;;;;;7.25;4.30;;;;;;;;;;5022066;28;20033;-73